sensor_id;sensor_type;location;lat;lon;timestamp;P1;durP1;ratioP1;P2;durP2;ratioP2
30850;SDS011;17567;48.382;9.102;2023-05-31T00:04:06;8.33;;;3.33;;
30850;SDS011;17567;48.382;9.102;2023-05-31T00:09:08;8.00;;;3.03;;
30850;SDS011;17567;48.382;9.102;2023-05-31T00:14:09;4.93;;;2.67;;
30850;SDS011;17567;48.382;9.102;2023-05-31T00:19:10;6.37;;;3.07;;
30850;SDS011;17567;48.382;9.102;2023-05-31T00:24:13;8.40;;;2.93;;
30850;SDS011;17567;48.382;9.102;2023-05-31T00:29:14;3.17;;;2.43;;
30850;SDS011;17567;48.382;9.102;2023-05-31T00:34:15;4.07;;;2.83;;
30850;SDS011;17567;48.382;9.102;2023-05-31T00:39:16;2.93;;;2.60;;
30850;SDS011;17567;48.382;9.102;2023-05-31T00:44:18;3.17;;;2.80;;
30850;SDS011;17567;48.382;9.102;2023-05-31T00:49:19;5.60;;;2.67;;
30850;SDS011;17567;48.382;9.102;2023-05-31T00:54:19;4.93;;;2.73;;
30850;SDS011;17567;48.382;9.102;2023-05-31T00:59:22;6.13;;;2.90;;
30850;SDS011;17567;48.382;9.102;2023-05-31T01:04:23;5.10;;;2.77;;
30850;SDS011;17567;48.382;9.102;2023-05-31T01:20:10;8.00;;;2.83;;
30850;SDS011;17567;48.382;9.102;2023-05-31T01:30:20;5.23;;;2.80;;
30850;SDS011;17567;48.382;9.102;2023-05-31T01:35:21;9.63;;;3.10;;
30850;SDS011;17567;48.382;9.102;2023-05-31T01:40:25;4.17;;;2.90;;
30850;SDS011;17567;48.382;9.102;2023-05-31T01:45:26;5.57;;;2.60;;
30850;SDS011;17567;48.382;9.102;2023-05-31T01:50:28;3.70;;;2.40;;
30850;SDS011;17567;48.382;9.102;2023-05-31T01:55:29;4.53;;;2.70;;
30850;SDS011;17567;48.382;9.102;2023-05-31T02:00:31;7.23;;;2.60;;
30850;SDS011;17567;48.382;9.102;2023-05-31T02:05:32;4.27;;;3.03;;
30850;SDS011;17567;48.382;9.102;2023-05-31T02:10:33;9.53;;;2.97;;
30850;SDS011;17567;48.382;9.102;2023-05-31T02:15:34;3.17;;;2.63;;
30850;SDS011;17567;48.382;9.102;2023-05-31T02:20:37;3.60;;;2.40;;
30850;SDS011;17567;48.382;9.102;2023-05-31T02:25:38;4.33;;;2.77;;
30850;SDS011;17567;48.382;9.102;2023-05-31T02:30:39;3.73;;;2.23;;
30850;SDS011;17567;48.382;9.102;2023-05-31T02:35:40;5.93;;;2.97;;
30850;SDS011;17567;48.382;9.102;2023-05-31T02:40:41;4.50;;;2.67;;
30850;SDS011;17567;48.382;9.102;2023-05-31T02:45:42;6.27;;;2.67;;
30850;SDS011;17567;48.382;9.102;2023-05-31T02:50:43;5.80;;;2.77;;
30850;SDS011;17567;48.382;9.102;2023-05-31T02:55:44;3.77;;;2.43;;
30850;SDS011;17567;48.382;9.102;2023-05-31T03:00:46;9.77;;;3.20;;
30850;SDS011;17567;48.382;9.102;2023-05-31T03:05:48;6.27;;;2.50;;
30850;SDS011;17567;48.382;9.102;2023-05-31T03:10:48;2.83;;;2.40;;
30850;SDS011;17567;48.382;9.102;2023-05-31T03:15:49;3.70;;;2.67;;
30850;SDS011;17567;48.382;9.102;2023-05-31T03:20:50;5.33;;;2.50;;
30850;SDS011;17567;48.382;9.102;2023-05-31T03:25:51;4.63;;;2.70;;
30850;SDS011;17567;48.382;9.102;2023-05-31T03:30:51;5.53;;;2.67;;
30850;SDS011;17567;48.382;9.102;2023-05-31T03:35:52;5.70;;;2.97;;
30850;SDS011;17567;48.382;9.102;2023-05-31T03:40:53;4.67;;;2.67;;
30850;SDS011;17567;48.382;9.102;2023-05-31T03:45:53;4.97;;;2.33;;
30850;SDS011;17567;48.382;9.102;2023-05-31T03:50:55;6.23;;;2.73;;
30850;SDS011;17567;48.382;9.102;2023-05-31T03:55:56;4.37;;;2.93;;
30850;SDS011;17567;48.382;9.102;2023-05-31T04:00:57;5.00;;;2.67;;
30850;SDS011;17567;48.382;9.102;2023-05-31T04:05:58;2.87;;;2.07;;
30850;SDS011;17567;48.382;9.102;2023-05-31T04:11:00;7.27;;;3.00;;
30850;SDS011;17567;48.382;9.102;2023-05-31T04:16:01;4.77;;;2.90;;
30850;SDS011;17567;48.382;9.102;2023-05-31T04:21:02;5.90;;;2.90;;
30850;SDS011;17567;48.382;9.102;2023-05-31T04:26:03;8.07;;;2.50;;
30850;SDS011;17567;48.382;9.102;2023-05-31T04:31:04;6.57;;;2.63;;
30850;SDS011;17567;48.382;9.102;2023-05-31T04:36:06;3.37;;;2.50;;
30850;SDS011;17567;48.382;9.102;2023-05-31T04:41:08;6.33;;;2.77;;
30850;SDS011;17567;48.382;9.102;2023-05-31T04:46:09;6.37;;;2.93;;
30850;SDS011;17567;48.382;9.102;2023-05-31T04:51:10;3.67;;;2.80;;
30850;SDS011;17567;48.382;9.102;2023-05-31T04:56:11;4.50;;;2.90;;
30850;SDS011;17567;48.382;9.102;2023-05-31T05:01:12;6.90;;;3.50;;
30850;SDS011;17567;48.382;9.102;2023-05-31T05:06:15;4.67;;;3.10;;
30850;SDS011;17567;48.382;9.102;2023-05-31T05:11:16;5.30;;;2.53;;
30850;SDS011;17567;48.382;9.102;2023-05-31T05:16:17;4.50;;;2.60;;
30850;SDS011;17567;48.382;9.102;2023-05-31T05:21:18;4.23;;;2.80;;
30850;SDS011;17567;48.382;9.102;2023-05-31T05:26:19;3.77;;;2.90;;
30850;SDS011;17567;48.382;9.102;2023-05-31T05:31:20;5.03;;;2.47;;
30850;SDS011;17567;48.382;9.102;2023-05-31T05:36:21;4.27;;;2.50;;
30850;SDS011;17567;48.382;9.102;2023-05-31T05:41:22;5.13;;;2.70;;
30850;SDS011;17567;48.382;9.102;2023-05-31T05:46:23;5.27;;;2.50;;
30850;SDS011;17567;48.382;9.102;2023-05-31T05:51:24;4.90;;;2.50;;
30850;SDS011;17567;48.382;9.102;2023-05-31T05:56:25;4.47;;;2.50;;
30850;SDS011;17567;48.382;9.102;2023-05-31T06:01:26;8.23;;;2.80;;
30850;SDS011;17567;48.382;9.102;2023-05-31T06:06:27;4.70;;;2.60;;
30850;SDS011;17567;48.382;9.102;2023-05-31T06:11:27;5.40;;;2.93;;
30850;SDS011;17567;48.382;9.102;2023-05-31T06:16:31;5.47;;;2.70;;
30850;SDS011;17567;48.382;9.102;2023-05-31T06:21:32;5.30;;;3.13;;
30850;SDS011;17567;48.382;9.102;2023-05-31T06:26:32;4.57;;;2.83;;
30850;SDS011;17567;48.382;9.102;2023-05-31T06:31:35;4.43;;;2.70;;
30850;SDS011;17567;48.382;9.102;2023-05-31T06:36:36;5.03;;;3.17;;
30850;SDS011;17567;48.382;9.102;2023-05-31T06:41:37;4.23;;;3.00;;
30850;SDS011;17567;48.382;9.102;2023-05-31T06:46:38;3.90;;;2.90;;
30850;SDS011;17567;48.382;9.102;2023-05-31T06:51:43;4.90;;;2.83;;
30850;SDS011;17567;48.382;9.102;2023-05-31T06:56:44;9.17;;;3.23;;
30850;SDS011;17567;48.382;9.102;2023-05-31T07:01:44;7.53;;;3.20;;
30850;SDS011;17567;48.382;9.102;2023-05-31T07:06:45;8.17;;;3.60;;
30850;SDS011;17567;48.382;9.102;2023-05-31T07:11:46;11.43;;;3.37;;
30850;SDS011;17567;48.382;9.102;2023-05-31T07:16:46;5.93;;;3.10;;
30850;SDS011;17567;48.382;9.102;2023-05-31T07:21:51;8.10;;;2.77;;
30850;SDS011;17567;48.382;9.102;2023-05-31T07:26:51;6.50;;;3.47;;
30850;SDS011;17567;48.382;9.102;2023-05-31T07:31:52;4.90;;;3.13;;
30850;SDS011;17567;48.382;9.102;2023-05-31T07:36:53;7.20;;;3.20;;
30850;SDS011;17567;48.382;9.102;2023-05-31T07:41:54;4.17;;;3.33;;
30850;SDS011;17567;48.382;9.102;2023-05-31T07:46:54;6.23;;;3.10;;
30850;SDS011;17567;48.382;9.102;2023-05-31T07:51:55;9.80;;;3.10;;
30850;SDS011;17567;48.382;9.102;2023-05-31T07:56:56;4.60;;;3.50;;
30850;SDS011;17567;48.382;9.102;2023-05-31T08:01:57;7.53;;;3.33;;
30850;SDS011;17567;48.382;9.102;2023-05-31T08:06:58;5.13;;;3.00;;
30850;SDS011;17567;48.382;9.102;2023-05-31T08:11:58;10.47;;;3.30;;
30850;SDS011;17567;48.382;9.102;2023-05-31T08:16:59;5.63;;;2.73;;
30850;SDS011;17567;48.382;9.102;2023-05-31T08:22:00;10.50;;;2.97;;
30850;SDS011;17567;48.382;9.102;2023-05-31T08:27:04;4.77;;;3.30;;
30850;SDS011;17567;48.382;9.102;2023-05-31T08:32:05;5.20;;;3.07;;
30850;SDS011;17567;48.382;9.102;2023-05-31T08:37:09;6.47;;;3.30;;
30850;SDS011;17567;48.382;9.102;2023-05-31T08:42:12;3.93;;;3.03;;
30850;SDS011;17567;48.382;9.102;2023-05-31T08:47:43;5.10;;;3.00;;
30850;SDS011;17567;48.382;9.102;2023-05-31T08:53:04;7.17;;;3.27;;
30850;SDS011;17567;48.382;9.102;2023-05-31T08:58:07;4.93;;;2.90;;
30850;SDS011;17567;48.382;9.102;2023-05-31T09:03:10;7.63;;;3.20;;
30850;SDS011;17567;48.382;9.102;2023-05-31T09:08:12;5.30;;;2.90;;
30850;SDS011;17567;48.382;9.102;2023-05-31T09:13:13;7.77;;;3.20;;
30850;SDS011;17567;48.382;9.102;2023-05-31T09:18:21;4.87;;;3.00;;
30850;SDS011;17567;48.382;9.102;2023-05-31T09:23:25;3.95;;;2.78;;
30850;SDS011;17567;48.382;9.102;2023-05-31T09:28:29;6.95;;;3.20;;
30850;SDS011;17567;48.382;9.102;2023-05-31T09:33:41;4.93;;;2.90;;
30850;SDS011;17567;48.382;9.102;2023-05-31T09:38:42;4.18;;;2.70;;
30850;SDS011;17567;48.382;9.102;2023-05-31T09:43:43;6.55;;;3.05;;
30850;SDS011;17567;48.382;9.102;2023-05-31T09:48:45;3.55;;;2.83;;
30850;SDS011;17567;48.382;9.102;2023-05-31T09:53:47;4.82;;;3.08;;
30850;SDS011;17567;48.382;9.102;2023-05-31T09:58:51;3.97;;;2.80;;
30850;SDS011;17567;48.382;9.102;2023-05-31T10:03:53;4.10;;;2.50;;
30850;SDS011;17567;48.382;9.102;2023-05-31T10:08:54;6.65;;;2.80;;
30850;SDS011;17567;48.382;9.102;2023-05-31T10:13:59;6.60;;;2.85;;
30850;SDS011;17567;48.382;9.102;2023-05-31T10:19:02;3.42;;;2.20;;
30850;SDS011;17567;48.382;9.102;2023-05-31T10:24:09;5.78;;;2.50;;
30850;SDS011;17567;48.382;9.102;2023-05-31T10:29:16;6.20;;;2.55;;
30850;SDS011;17567;48.382;9.102;2023-05-31T10:34:28;4.70;;;2.50;;
30850;SDS011;17567;48.382;9.102;2023-05-31T10:39:43;3.38;;;2.45;;
30850;SDS011;17567;48.382;9.102;2023-05-31T10:44:46;2.88;;;2.33;;
30850;SDS011;17567;48.382;9.102;2023-05-31T10:49:50;6.10;;;2.67;;
30850;SDS011;17567;48.382;9.102;2023-05-31T10:54:53;6.18;;;2.25;;
30850;SDS011;17567;48.382;9.102;2023-05-31T11:00:14;5.90;;;2.67;;
30850;SDS011;17567;48.382;9.102;2023-05-31T11:05:23;3.67;;;2.40;;
30850;SDS011;17567;48.382;9.102;2023-05-31T11:10:28;5.68;;;2.35;;
30850;SDS011;17567;48.382;9.102;2023-05-31T11:15:41;9.48;;;2.50;;
30850;SDS011;17567;48.382;9.102;2023-05-31T11:20:42;3.50;;;2.35;;
30850;SDS011;17567;48.382;9.102;2023-05-31T11:25:43;4.05;;;2.20;;
30850;SDS011;17567;48.382;9.102;2023-05-31T11:30:44;6.95;;;2.40;;
30850;SDS011;17567;48.382;9.102;2023-05-31T11:35:46;6.75;;;2.38;;
30850;SDS011;17567;48.382;9.102;2023-05-31T11:40:47;8.68;;;2.58;;
30850;SDS011;17567;48.382;9.102;2023-05-31T11:45:49;5.97;;;2.72;;
30850;SDS011;17567;48.382;9.102;2023-05-31T11:50:53;8.07;;;1.95;;
30850;SDS011;17567;48.382;9.102;2023-05-31T11:55:55;5.95;;;2.30;;
30850;SDS011;17567;48.382;9.102;2023-05-31T12:00:58;6.30;;;2.20;;
30850;SDS011;17567;48.382;9.102;2023-05-31T12:06:07;3.35;;;2.30;;
30850;SDS011;17567;48.382;9.102;2023-05-31T12:11:18;5.07;;;2.05;;
30850;SDS011;17567;48.382;9.102;2023-05-31T12:16:25;4.43;;;2.28;;
30850;SDS011;17567;48.382;9.102;2023-05-31T12:43:22;5.30;;;2.20;;
30850;SDS011;17567;48.382;9.102;2023-05-31T12:48:23;9.13;;;2.00;;
30850;SDS011;17567;48.382;9.102;2023-05-31T12:58:35;5.57;;;2.13;;
30850;SDS011;17567;48.382;9.102;2023-05-31T13:03:36;9.20;;;2.60;;
30850;SDS011;17567;48.382;9.102;2023-05-31T13:08:37;3.78;;;1.85;;
30850;SDS011;17567;48.382;9.102;2023-05-31T13:13:38;3.20;;;2.05;;
30850;SDS011;17567;48.382;9.102;2023-05-31T13:18:39;6.55;;;2.40;;
30850;SDS011;17567;48.382;9.102;2023-05-31T13:23:41;7.88;;;2.63;;
30850;SDS011;17567;48.382;9.102;2023-05-31T13:28:42;5.80;;;2.13;;
30850;SDS011;17567;48.382;9.102;2023-05-31T13:33:43;5.30;;;2.03;;
30850;SDS011;17567;48.382;9.102;2023-05-31T13:44:23;3.97;;;1.80;;
30850;SDS011;17567;48.382;9.102;2023-05-31T13:49:24;3.45;;;2.10;;
30850;SDS011;17567;48.382;9.102;2023-05-31T13:54:33;4.88;;;2.00;;
30850;SDS011;17567;48.382;9.102;2023-05-31T13:59:34;3.63;;;1.90;;
30850;SDS011;17567;48.382;9.102;2023-05-31T14:09:57;2.83;;;1.80;;
30850;SDS011;17567;48.382;9.102;2023-05-31T14:20:15;3.72;;;1.60;;
30850;SDS011;17567;48.382;9.102;2023-05-31T14:25:16;4.15;;;1.80;;
30850;SDS011;17567;48.382;9.102;2023-05-31T14:30:38;4.07;;;1.77;;
30850;SDS011;17567;48.382;9.102;2023-05-31T14:35:42;6.20;;;1.75;;
30850;SDS011;17567;48.382;9.102;2023-05-31T14:40:45;2.53;;;1.70;;
